Pulaski, TN

10:19 AM CDT on October 30, 2014 (GMT -0500)
Giles County Courthouse Annex | Change Station
CLOSE
Current Station
Personal Weather Station
Location: Pulaski, TN
Elevation: 730 ft
Nearby Weather Stations
Active Advisory: Special Statement

Elev 730 ft 35.20 °N, 87.03 °W | Updated 2 minutes ago

Clear
Clear
53.7 °F
Feels Like 53.7 °F
N
1.5
Wind Variable Wind from South
Gusts 5.5 mph

Today
High -- | Low -- °F
--% Chance of Precip.
Yesterday
High -- | Low -- °F
Precip. -- in
7:07 AM 5:55 PM
Waxing Crescent, 45% visible
Pressure 30.15 in
Visibility 10.0 miles
Clouds Clear
Dew Point 40 °F
Humidity 60%
Rainfall 0.00 in
Snow Depth Not available.
UV 3 out of 12
Pollen 1.30 out of 12
Air Quality Not available.
Flu Activity Not available.
METAR KMRC 301455Z AUTO 00000KT 10SM CLR 09/09 A3015 RMK

More Conditions Fewer Conditions

Pressure 30.15 in
Visibility 10.0 miles
Clouds Clear
Dew Point 40 °F
Humidity 60%
Rainfall 0.00 in
Snow Depth Not available.
UV 3 out of 12
Pollen 1.30 out of 12
Air Quality Not available.
Flu Activity Not available.
METAR KMRC 301455Z AUTO 00000KT 10SM CLR 09/09 A3015 RMK

More Conditions Fewer Conditions

10-Day Weather Forecast

Almanac

Astronomy

Oct. 30, 2014 Rise Set
Actual Time
Civil Twilight
Nautical Twilight
Astronomical Twilight
Moon
Length of Visible Light
Length of Day
Tomorrow will be .
, % of the Moon is Illuminated

Today's Extremes

State Highs State Lows

Community

WunderPhotos

Upload Photos

1,766,387 photos uploaded!

WunderBlogs® & News

Nearby

Air Quality

  Air Quality AQ Index Pollutant
Not available.

Snow Depth

Station Depth Elevation

Earthquake Activity

City Distance Mag. Time & Date
Minimum magnitude displayed is 2.5.

Coastal Water Temperatures

Place Temperature

Nearby Weather Stations